createdAt,value
2018-06-18T14:50:11.677Z,52.44
2018-06-18T14:51:11.088Z,53.53
2018-06-18T14:52:10.221Z,53.44
2018-06-18T14:53:10.921Z,53.14
2018-06-18T14:54:11.224Z,54.03
2018-06-18T14:55:10.279Z,53.53
2018-06-18T14:56:10.215Z,53.83
2018-06-18T14:57:10.342Z,53.63
2018-06-18T14:58:10.276Z,53.63
2018-06-18T14:59:09.947Z,53.93
2018-06-18T15:00:09.967Z,54.53
2018-06-18T15:01:09.885Z,54.43
2018-06-18T15:02:09.875Z,53.93
2018-06-18T15:03:10.015Z,54.43
2018-06-18T15:04:09.875Z,54.72
2018-06-18T15:05:09.971Z,55.02
2018-06-18T15:06:09.756Z,55.12
2018-06-18T15:07:09.744Z,55.32
2018-06-18T15:08:10.118Z,55.42
2018-06-18T15:09:09.897Z,55.65
2018-06-18T15:10:10.504Z,55.52
2018-06-18T15:11:09.607Z,56.02
2018-06-18T15:12:10.077Z,55.42
2018-06-18T15:13:10.142Z,55.91
2018-06-18T15:14:09.503Z,55.72
2018-06-18T15:15:09.553Z,57.21
2018-06-18T15:16:09.787Z,55.82
2018-06-18T15:17:09.497Z,56.02
2018-06-18T15:18:09.417Z,55.94
2018-06-18T15:19:09.596Z,56.02
2018-06-18T15:20:09.442Z,55.94
2018-06-18T15:21:09.381Z,56.02
2018-06-18T15:22:09.446Z,56.41
2018-06-18T15:23:09.515Z,56.51
2018-06-18T15:24:09.201Z,56.02
2018-06-18T15:25:09.458Z,55.72
2018-06-18T15:26:09.228Z,55.91
2018-06-18T15:27:09.127Z,56.61
2018-06-18T15:28:09.066Z,56.51
2018-06-18T15:29:09.076Z,56.32
2018-06-18T15:30:09.242Z,55.82
2018-06-18T15:31:09.206Z,55.91
2018-06-18T15:32:09.038Z,55.82
2018-06-18T15:33:09.151Z,55.91
2018-06-18T15:34:08.864Z,56.02
2018-06-18T15:35:08.815Z,56.71
2018-06-18T15:36:08.784Z,57.01
2018-06-18T15:37:08.888Z,57.21
2018-06-18T15:38:08.859Z,57.21
2018-06-18T15:39:08.732Z,55.91
2018-06-18T15:40:08.741Z,56.51
2018-06-18T15:41:08.706Z,55.91
2018-06-18T15:42:09.624Z,55.91
2018-06-18T15:43:08.577Z,55.99
2018-06-18T15:44:08.742Z,55.49
2018-06-18T15:45:08.505Z,55.29
2018-06-18T15:46:08.875Z,54.70
2018-06-18T15:47:08.452Z,55.00
2018-06-18T15:48:08.620Z,54.90
2018-06-18T15:49:08.429Z,54.90
2018-06-18T15:50:08.778Z,54.80
